createdAt,value
2023-04-15T00:01:10.189Z,0.88
2023-04-15T00:03:37.120Z,1.20
2023-04-15T00:06:04.197Z,1.08
2023-04-15T00:08:31.116Z,0.85
2023-04-15T00:11:02.776Z,0.98
2023-04-15T00:13:29.753Z,1.23
2023-04-15T00:15:56.492Z,0.93
2023-04-15T00:18:24.300Z,1.13
2023-04-15T00:20:51.110Z,0.90
2023-04-15T00:23:18.131Z,1.13
2023-04-15T00:25:45.452Z,1.02
2023-04-15T00:28:12.422Z,1.10
2023-04-15T00:30:39.537Z,1.02
2023-04-15T00:33:06.730Z,1.10
2023-04-15T00:35:33.643Z,1.02
2023-04-15T00:38:00.699Z,1.23
2023-04-15T00:40:27.871Z,1.20
2023-04-15T00:42:55.175Z,1.17
2023-04-15T00:45:21.993Z,0.95
2023-04-15T00:47:48.840Z,1.00
2023-04-15T00:50:16.918Z,1.17
2023-04-15T00:52:43.841Z,1.00
2023-04-15T00:55:11.395Z,1.10
2023-04-15T00:57:39.622Z,1.20
2023-04-15T01:00:08.943Z,1.35
2023-04-15T01:02:39.132Z,1.15
2023-04-15T01:05:06.362Z,1.13
2023-04-15T01:07:33.257Z,1.10
2023-04-15T01:10:00.157Z,1.13
2023-04-15T01:12:27.483Z,1.17
2023-04-15T01:14:55.328Z,1.23
2023-04-15T01:17:22.134Z,1.33
2023-04-15T01:19:48.845Z,1.00
2023-04-15T01:22:16.412Z,1.20
2023-04-15T01:24:49.918Z,1.30
2023-04-15T01:27:17.056Z,1.02
2023-04-15T01:29:43.729Z,1.15
2023-04-15T01:32:11.999Z,1.25
2023-04-15T01:34:38.827Z,1.20
2023-04-15T01:37:06.054Z,1.38
2023-04-15T01:39:32.827Z,0.88
2023-04-15T01:41:59.501Z,1.10
2023-04-15T01:44:26.522Z,1.42
2023-04-15T01:46:53.240Z,1.75
2023-04-15T01:49:20.141Z,1.20
2023-04-15T01:51:46.879Z,0.85
2023-04-15T01:54:13.416Z,1.00
2023-04-15T01:56:40.135Z,1.00
2023-04-15T01:59:07.095Z,1.38
2023-04-15T02:01:33.905Z,1.23
2023-04-15T02:04:01.019Z,0.90
2023-04-15T02:06:28.350Z,0.90
2023-04-15T02:08:55.443Z,1.05
2023-04-15T02:11:23.244Z,1.17
2023-04-15T02:13:49.916Z,1.20
2023-04-15T02:16:20.507Z,1.13
2023-04-15T02:18:48.087Z,1.15
2023-04-15T02:21:14.914Z,1.00
2023-04-15T02:23:41.704Z,1.10
2023-04-15T02:26:08.320Z,1.10
2023-04-15T02:28:34.982Z,1.00
2023-04-15T02:31:06.660Z,1.02
2023-04-15T02:36:01.125Z,0.80
2023-04-15T02:38:28.425Z,1.48
2023-04-15T02:40:55.818Z,0.90
2023-04-15T02:43:22.466Z,0.90
2023-04-15T02:45:51.446Z,0.70
2023-04-15T02:48:19.739Z,1.00
2023-04-15T02:50:47.898Z,1.17
2023-04-15T02:53:15.658Z,0.63
2023-04-15T02:55:42.939Z,1.08
2023-04-15T02:58:09.740Z,1.45
2023-04-15T03:00:36.693Z,0.82
2023-04-15T03:03:06.261Z,0.88
2023-04-15T03:05:33.361Z,1.05
2023-04-15T03:08:03.298Z,0.95
2023-04-15T03:10:29.985Z,1.20
2023-04-15T03:12:56.579Z,0.80
2023-04-15T03:15:24.200Z,0.85
2023-04-15T03:17:52.896Z,0.70
2023-04-15T03:20:20.440Z,1.00
2023-04-15T03:22:48.412Z,1.08
2023-04-15T03:25:15.676Z,1.40
2023-04-15T03:27:43.217Z,1.25
2023-04-15T03:30:11.598Z,1.00
2023-04-15T03:32:40.163Z,1.00
2023-04-15T03:35:08.410Z,0.90
2023-04-15T03:37:35.815Z,0.85
2023-04-15T03:40:02.873Z,1.00
2023-04-15T03:42:29.658Z,1.10
2023-04-15T03:44:56.712Z,1.33
2023-04-15T03:47:23.858Z,1.40
2023-04-15T03:49:50.602Z,1.00
2023-04-15T03:52:17.196Z,0.80
2023-04-15T03:54:43.710Z,0.90
2023-04-15T03:57:10.757Z,1.15
2023-04-15T03:59:37.418Z,1.42
2023-04-15T04:02:04.277Z,0.93
2023-04-15T04:04:31.073Z,0.80
2023-04-15T04:06:57.643Z,1.10
2023-04-15T04:09:24.495Z,0.88
2023-04-15T04:11:51.235Z,1.20
2023-04-15T04:14:17.762Z,0.70
2023-04-15T04:16:45.255Z,0.73
2023-04-15T04:19:12.276Z,0.68
2023-04-15T04:21:39.765Z,0.98
2023-04-15T04:24:06.517Z,0.90
2023-04-15T04:26:33.269Z,1.13
2023-04-15T04:28:59.956Z,0.90
2023-04-15T04:31:27.285Z,0.90
2023-04-15T04:33:53.944Z,0.90
2023-04-15T04:36:20.613Z,0.63
2023-04-15T04:38:47.170Z,0.90
2023-04-15T04:41:13.986Z,0.68
2023-04-15T04:43:40.526Z,0.50
2023-04-15T04:46:07.225Z,0.70
2023-04-15T04:48:34.212Z,1.75
2023-04-15T04:51:01.169Z,0.47
2023-04-15T04:53:28.074Z,0.55
2023-04-15T04:55:54.854Z,0.70
2023-04-15T04:58:21.530Z,0.45
2023-04-15T05:00:48.190Z,0.82
2023-04-15T05:03:15.542Z,0.57
2023-04-15T05:05:42.488Z,0.75
2023-04-15T05:08:09.281Z,0.77
2023-04-15T05:10:36.288Z,0.50
2023-04-15T05:13:02.946Z,0.55
2023-04-15T05:15:29.757Z,1.00
2023-04-15T05:17:56.797Z,0.60
2023-04-15T05:20:23.639Z,0.80
2023-04-15T05:22:50.301Z,1.17
2023-04-15T05:25:17.348Z,0.88
2023-04-15T05:27:44.185Z,1.02
2023-04-15T05:30:13.323Z,0.80
2023-04-15T05:32:40.673Z,0.68
2023-04-15T05:35:08.173Z,0.60
2023-04-15T05:37:35.098Z,0.60
2023-04-15T05:40:01.712Z,1.05
2023-04-15T05:42:28.508Z,0.73
2023-04-15T05:44:55.286Z,0.60
2023-04-15T05:47:21.882Z,0.50
2023-04-15T05:49:48.489Z,0.60
2023-04-15T05:52:15.471Z,0.80
2023-04-15T05:54:42.107Z,0.40
2023-04-15T05:57:08.867Z,0.60
2023-04-15T05:59:36.100Z,0.50
2023-04-15T06:02:02.916Z,0.70
2023-04-15T06:04:29.732Z,1.00
2023-04-15T06:06:57.039Z,0.95
2023-04-15T06:09:23.704Z,0.50
2023-04-15T06:11:51.780Z,0.60
2023-04-15T06:14:18.434Z,0.80
2023-04-15T06:16:45.107Z,0.88
2023-04-15T06:19:12.527Z,0.60
2023-04-15T06:21:39.190Z,1.10
2023-04-15T06:24:06.042Z,0.70
2023-04-15T06:26:32.900Z,0.90
2023-04-15T06:28:59.723Z,0.95
2023-04-15T06:31:27.005Z,0.50
2023-04-15T06:33:53.553Z,0.50
2023-04-15T06:36:20.730Z,0.85
2023-04-15T06:38:47.277Z,0.90
2023-04-15T06:41:14.007Z,0.60
2023-04-15T06:43:40.595Z,0.55
2023-04-15T06:46:07.338Z,0.38
2023-04-15T06:48:34.075Z,0.45
2023-04-15T06:51:01.449Z,0.80
2023-04-15T06:53:28.391Z,0.63
2023-04-15T06:55:55.083Z,0.80
2023-04-15T06:58:22.200Z,0.57
2023-04-15T07:00:49.105Z,0.43
2023-04-15T07:03:16.079Z,1.17
2023-04-15T07:05:42.738Z,0.55
2023-04-15T07:08:09.769Z,0.65
2023-04-15T07:10:36.974Z,0.40
2023-04-15T07:13:04.334Z,0.40
2023-04-15T07:15:31.137Z,0.30
2023-04-15T07:17:57.823Z,0.40
2023-04-15T07:20:24.637Z,0.40
2023-04-15T07:22:51.217Z,0.25
2023-04-15T07:25:19.108Z,0.70
2023-04-15T07:27:45.891Z,0.40
2023-04-15T07:30:12.870Z,0.40
2023-04-15T07:32:42.808Z,0.70
2023-04-15T07:35:09.788Z,0.52
2023-04-15T07:37:36.669Z,0.50
2023-04-15T07:40:04.912Z,0.50
2023-04-15T07:42:31.853Z,0.50
2023-04-15T07:44:58.509Z,0.50
2023-04-15T07:47:25.977Z,0.60
2023-04-15T07:49:53.171Z,0.77
2023-04-15T07:52:19.917Z,0.45
2023-04-15T07:54:46.865Z,0.55
2023-04-15T07:57:13.470Z,0.50
2023-04-15T07:59:40.364Z,0.60
2023-04-15T08:02:07.370Z,0.50
2023-04-15T08:04:34.416Z,0.55
2023-04-15T08:07:01.341Z,0.65
2023-04-15T08:09:28.036Z,0.55
2023-04-15T08:11:54.702Z,0.40
2023-04-15T08:14:21.723Z,0.30
2023-04-15T08:16:48.310Z,0.63
2023-04-15T08:19:15.081Z,0.60
2023-04-15T08:21:44.620Z,0.50
2023-04-15T08:24:11.559Z,0.38
2023-04-15T08:26:38.255Z,0.63
2023-04-15T08:29:05.135Z,0.43
2023-04-15T08:31:32.148Z,0.70
2023-04-15T08:33:59.350Z,0.50
2023-04-15T08:36:27.041Z,1.10
2023-04-15T08:38:54.041Z,0.40
2023-04-15T08:41:22.450Z,0.70
2023-04-15T08:43:54.414Z,0.57
2023-04-15T08:46:21.523Z,0.73
2023-04-15T08:48:49.462Z,0.75
2023-04-15T08:51:18.238Z,0.63
2023-04-15T08:53:47.505Z,0.90
2023-04-15T08:56:16.833Z,0.60
2023-04-15T08:58:47.766Z,0.60
2023-04-15T09:01:14.418Z,0.50
2023-04-15T09:03:42.542Z,0.50
2023-04-15T09:06:09.455Z,0.80
2023-04-15T09:08:36.312Z,0.77
2023-04-15T09:11:03.658Z,0.40
2023-04-15T09:13:31.009Z,0.60
2023-04-15T09:15:58.465Z,0.95
2023-04-15T09:18:30.813Z,0.80
2023-04-15T09:21:09.064Z,0.70
2023-04-15T09:23:36.291Z,0.60
2023-04-15T09:26:04.050Z,1.23
2023-04-15T09:28:31.396Z,0.70
2023-04-15T09:30:59.895Z,0.73
2023-04-15T09:33:28.199Z,0.60
2023-04-15T09:36:04.708Z,0.82
2023-04-15T09:38:32.132Z,1.17
2023-04-15T09:40:59.258Z,0.82
2023-04-15T09:43:40.168Z,0.90
2023-04-15T09:46:06.937Z,0.50
2023-04-15T09:48:33.590Z,0.63
2023-04-15T09:51:01.909Z,0.70
2023-04-15T09:53:31.172Z,0.60
2023-04-15T09:56:03.362Z,0.80
2023-04-15T09:58:32.281Z,1.02
2023-04-15T10:01:00.488Z,1.13
2023-04-15T10:03:29.444Z,0.90
2023-04-15T10:05:57.622Z,0.82
2023-04-15T10:08:29.217Z,0.98
2023-04-15T10:13:29.734Z,0.82
2023-04-15T10:16:01.233Z,1.13
2023-04-15T10:20:56.017Z,1.27
2023-04-15T10:23:24.570Z,1.20
2023-04-15T10:25:54.561Z,1.02
2023-04-15T10:28:22.885Z,1.08
2023-04-15T10:30:50.099Z,0.98
2023-04-15T10:33:20.758Z,1.08
2023-04-15T10:35:48.918Z,1.23
2023-04-15T10:38:34.495Z,1.00
2023-04-15T10:41:14.659Z,1.30
2023-04-15T10:43:51.920Z,0.80
2023-04-15T10:46:21.339Z,0.88
2023-04-15T10:48:50.138Z,1.15
2023-04-15T10:51:16.989Z,1.40
2023-04-15T10:53:43.615Z,1.05
2023-04-15T10:56:10.546Z,1.10
2023-04-15T10:58:44.181Z,1.20
2023-04-15T11:01:11.025Z,1.20
2023-04-15T11:03:40.191Z,1.00
2023-04-15T11:06:07.546Z,1.10
2023-04-15T11:08:57.499Z,1.17
2023-04-15T11:11:44.941Z,1.33
2023-04-15T11:14:16.373Z,1.33
2023-04-15T11:16:45.061Z,1.88
2023-04-15T11:19:12.013Z,0.90
2023-04-15T11:21:38.664Z,1.50
2023-04-15T11:24:05.437Z,1.67
2023-04-15T11:26:32.365Z,1.17
2023-04-15T11:28:59.769Z,1.30
2023-04-15T11:31:28.605Z,1.02
2023-04-15T11:33:58.251Z,1.17
2023-04-15T11:36:27.543Z,0.88
2023-04-15T11:38:54.411Z,1.08
2023-04-15T11:41:24.313Z,1.20
2023-04-15T11:43:52.096Z,0.80
2023-04-15T11:46:19.010Z,1.17
2023-04-15T11:48:47.311Z,1.33
2023-04-15T11:51:14.526Z,1.00
2023-04-15T11:53:46.714Z,0.95
2023-04-15T11:56:25.256Z,1.67
2023-04-15T11:59:03.023Z,1.45
2023-04-15T12:01:42.250Z,1.17
2023-04-15T12:04:21.474Z,1.35
2023-04-15T12:06:49.950Z,1.20
2023-04-15T12:09:17.068Z,1.65
2023-04-15T12:11:47.087Z,1.40
2023-04-15T12:14:32.115Z,1.02
2023-04-15T12:17:03.574Z,1.60
2023-04-15T12:19:32.503Z,1.80
2023-04-15T12:22:20.928Z,1.48
2023-04-15T12:24:49.072Z,1.60
2023-04-15T12:27:17.161Z,1.30
2023-04-15T12:29:43.964Z,1.23
2023-04-15T12:32:11.756Z,1.75
2023-04-15T12:34:50.197Z,1.50
2023-04-15T12:37:17.683Z,1.65
2023-04-15T12:39:45.886Z,1.55
2023-04-15T12:42:13.248Z,1.50
2023-04-15T12:44:40.492Z,1.67
2023-04-15T12:47:08.506Z,1.20
2023-04-15T12:49:35.148Z,1.50
2023-04-15T12:52:03.426Z,1.38
2023-04-15T12:54:31.375Z,1.13
2023-04-15T12:56:59.242Z,1.33
2023-04-15T12:59:25.931Z,1.30
2023-04-15T13:01:53.891Z,1.60
2023-04-15T13:04:21.913Z,1.50
2023-04-15T13:06:48.989Z,1.30
2023-04-15T13:09:15.856Z,2.00
2023-04-15T13:11:43.121Z,1.08
2023-04-15T13:14:12.839Z,1.20
2023-04-15T13:16:39.747Z,1.10
2023-04-15T13:19:06.482Z,1.27
2023-04-15T13:21:36.240Z,1.00
2023-04-15T13:24:04.905Z,0.77
2023-04-15T13:26:32.357Z,1.30
2023-04-15T13:28:59.452Z,4.03
2023-04-15T13:31:26.400Z,2.15
2023-04-15T13:33:53.280Z,1.23
2023-04-15T13:36:20.032Z,2.20
2023-04-15T13:38:48.054Z,1.08
2023-04-15T13:41:16.635Z,1.85
2023-04-15T13:43:43.422Z,1.23
2023-04-15T13:46:10.395Z,1.02
2023-04-15T13:48:37.098Z,1.25
2023-04-15T13:51:03.778Z,1.33
2023-04-15T13:53:37.930Z,0.90
2023-04-15T13:56:09.216Z,1.00
2023-04-15T13:58:37.062Z,1.27
2023-04-15T14:01:05.742Z,1.20
2023-04-15T14:03:33.362Z,0.90
2023-04-15T14:06:00.022Z,1.23
2023-04-15T14:08:27.081Z,0.90
2023-04-15T14:10:53.856Z,0.90
2023-04-15T14:13:20.597Z,0.70
2023-04-15T14:15:47.304Z,0.70
2023-04-15T14:18:14.437Z,0.82
2023-04-15T14:20:41.118Z,1.05
2023-04-15T14:23:07.954Z,1.02
2023-04-15T14:25:34.636Z,0.90
2023-04-15T14:28:02.656Z,1.50
2023-04-15T14:30:29.386Z,0.95
2023-04-15T14:32:56.545Z,1.00
2023-04-15T14:35:25.432Z,1.15
2023-04-15T14:37:53.553Z,1.00
2023-04-15T14:40:20.497Z,1.25
2023-04-15T14:42:47.151Z,3.03
2023-04-15T14:45:13.876Z,1.35
2023-04-15T14:47:40.811Z,0.90
2023-04-15T14:50:08.034Z,0.95
2023-04-15T14:52:38.689Z,1.90
2023-04-15T14:55:14.590Z,2.70
2023-04-15T14:57:42.763Z,1.60
2023-04-15T15:00:13.772Z,1.02
2023-04-15T15:02:43.284Z,1.08
2023-04-15T15:05:10.881Z,1.15
2023-04-15T15:07:38.650Z,1.10
2023-04-15T15:10:06.079Z,1.50
2023-04-15T15:12:33.528Z,1.38
2023-04-15T15:15:01.637Z,1.13
2023-04-15T15:17:29.876Z,1.33
2023-04-15T15:19:57.406Z,0.95
2023-04-15T15:22:24.688Z,1.15
2023-04-15T15:24:51.256Z,1.02
2023-04-15T15:27:17.917Z,1.15
2023-04-15T15:29:44.730Z,1.00
2023-04-15T15:32:11.360Z,0.90
2023-04-15T15:34:38.272Z,1.10
2023-04-15T15:37:04.910Z,1.15
2023-04-15T15:39:31.609Z,1.08
2023-04-15T15:41:58.307Z,1.02
2023-04-15T15:44:24.917Z,1.05
2023-04-15T15:46:51.829Z,1.23
2023-04-15T15:49:19.682Z,1.00
2023-04-15T15:51:46.699Z,1.00
2023-04-15T15:54:13.414Z,1.13
2023-04-15T15:56:40.374Z,1.00
2023-04-15T15:59:07.217Z,1.10
2023-04-15T16:01:34.301Z,1.08
2023-04-15T16:04:01.281Z,1.10
2023-04-15T16:06:28.175Z,0.90
2023-04-15T16:08:54.949Z,1.52
2023-04-15T16:11:21.613Z,1.10
2023-04-15T16:13:48.178Z,1.30
2023-04-15T16:16:15.211Z,1.40
2023-04-15T16:18:41.803Z,1.00
2023-04-15T16:21:08.639Z,5.85
2023-04-15T16:23:36.780Z,10.38
2023-04-15T16:26:03.794Z,4.90
2023-04-15T16:28:30.479Z,5.53
2023-04-15T16:30:57.161Z,1.90
2023-04-15T16:33:24.197Z,1.30
2023-04-15T16:35:51.725Z,1.65
2023-04-15T16:38:18.390Z,1.70
2023-04-15T16:40:46.339Z,4.78
2023-04-15T16:43:12.889Z,2.10
2023-04-15T16:45:39.737Z,2.25
2023-04-15T16:48:06.659Z,1.88
2023-04-15T16:50:33.493Z,2.75
2023-04-15T16:53:01.032Z,1.67
2023-04-15T16:55:27.564Z,2.50
2023-04-15T16:58:01.525Z,1.73
2023-04-15T17:00:29.802Z,2.08
2023-04-15T17:02:56.608Z,4.05
2023-04-15T17:05:23.559Z,3.75
2023-04-15T17:07:50.085Z,2.42
2023-04-15T17:10:16.645Z,2.45
2023-04-15T17:12:43.439Z,4.30
2023-04-15T17:15:10.594Z,3.90
2023-04-15T17:17:37.432Z,2.30
2023-04-15T17:20:04.315Z,2.47
2023-04-15T17:22:31.348Z,2.35
2023-04-15T17:24:57.894Z,2.67
2023-04-15T17:27:26.652Z,2.35
2023-04-15T17:29:53.215Z,2.58
2023-04-15T17:32:20.311Z,2.08
2023-04-15T17:34:50.013Z,2.22
2023-04-15T17:37:17.959Z,1.77
2023-04-15T17:39:44.520Z,1.70
2023-04-15T17:42:11.570Z,1.40
2023-04-15T17:44:38.251Z,1.60
2023-04-15T17:47:04.955Z,2.30
2023-04-15T17:49:34.168Z,1.58
2023-04-15T17:52:01.202Z,1.17
2023-04-15T17:54:28.115Z,1.38
2023-04-15T17:56:54.889Z,1.17
2023-04-15T17:59:21.609Z,1.10
2023-04-15T18:01:48.718Z,1.17
2023-04-15T18:04:15.756Z,1.00
2023-04-15T18:06:42.538Z,1.10
2023-04-15T18:09:09.334Z,1.23
2023-04-15T18:11:36.291Z,2.20
2023-04-15T18:14:04.248Z,1.30
2023-04-15T18:16:31.324Z,1.42
2023-04-15T18:18:58.156Z,1.33
2023-04-15T18:21:24.934Z,1.30
2023-04-15T18:23:51.508Z,1.02
2023-04-15T18:26:18.358Z,1.65
2023-04-15T18:28:45.012Z,1.40
2023-04-15T18:31:11.679Z,1.50
2023-04-15T18:33:39.062Z,1.40
2023-04-15T18:36:05.976Z,1.63
2023-04-15T18:38:32.913Z,1.38
2023-04-15T18:40:59.668Z,1.30
2023-04-15T18:43:26.343Z,1.50
2023-04-15T18:45:54.605Z,1.40
2023-04-15T18:48:21.541Z,1.77
2023-04-15T18:50:48.988Z,1.42
2023-04-15T18:53:16.428Z,1.20
2023-04-15T18:55:43.015Z,1.17
2023-04-15T18:58:09.913Z,0.80
2023-04-15T19:00:40.678Z,2.55
2023-04-15T19:03:08.058Z,3.08
2023-04-15T19:05:35.693Z,1.58
2023-04-15T19:08:02.471Z,1.50
2023-04-15T19:10:29.246Z,1.10
2023-04-15T19:12:56.022Z,1.00
2023-04-15T19:15:22.807Z,1.00
2023-04-15T19:17:49.609Z,0.80
2023-04-15T19:20:16.935Z,0.95
2023-04-15T19:22:43.675Z,0.90
2023-04-15T19:25:10.433Z,1.25
2023-04-15T19:27:38.511Z,1.00
2023-04-15T19:30:06.982Z,1.17
2023-04-15T19:32:34.137Z,1.40
2023-04-15T19:35:00.819Z,1.02
2023-04-15T19:37:27.539Z,1.15
2023-04-15T19:39:54.736Z,1.13
2023-04-15T19:42:21.563Z,1.25
2023-04-15T19:44:48.373Z,1.45
2023-04-15T19:47:15.027Z,1.15
2023-04-15T19:49:41.969Z,1.15
2023-04-15T19:52:08.700Z,1.20
2023-04-15T19:54:35.369Z,1.38
2023-04-15T19:57:02.220Z,1.50
2023-04-15T19:59:28.847Z,1.23
2023-04-15T20:01:55.816Z,1.38
2023-04-15T20:04:23.197Z,1.38
2023-04-15T20:06:50.057Z,0.85
2023-04-15T20:09:16.903Z,1.48
2023-04-15T20:12:44.937Z,1.13
2023-04-15T20:14:30.958Z,1.50
2023-04-15T20:16:57.837Z,1.25
2023-04-15T20:19:24.376Z,1.08
2023-04-15T20:21:52.552Z,1.40
2023-04-15T20:24:21.576Z,1.35
2023-04-15T20:26:48.118Z,1.33
2023-04-15T20:29:14.993Z,1.27
2023-04-15T20:31:41.900Z,1.15
2023-04-15T20:34:11.359Z,1.15
2023-04-15T20:36:38.641Z,1.23
2023-04-15T20:39:05.748Z,0.95
2023-04-15T20:41:32.563Z,1.38
2023-04-15T20:43:59.464Z,1.20
2023-04-15T20:46:27.845Z,1.10
2023-04-15T20:48:55.723Z,2.03
2023-04-15T20:51:22.471Z,1.15
2023-04-15T20:53:49.636Z,1.40
2023-04-15T20:56:16.355Z,1.58
2023-04-15T20:58:42.983Z,1.45
2023-04-15T21:01:09.831Z,1.20
2023-04-15T21:03:36.779Z,1.48
2023-04-15T21:06:03.674Z,1.20
2023-04-15T21:08:31.860Z,1.08
2023-04-15T21:10:58.524Z,1.45
2023-04-15T21:13:25.694Z,1.13
2023-04-15T21:15:54.213Z,1.48
2023-04-15T21:18:21.972Z,1.45
2023-04-15T21:21:02.208Z,1.45
2023-04-15T21:23:36.014Z,1.25
2023-04-15T21:26:02.931Z,1.10
2023-04-15T21:28:29.876Z,0.95
2023-04-15T21:30:57.798Z,1.23
2023-04-15T21:33:24.502Z,1.30
2023-04-15T21:35:51.732Z,1.40
2023-04-15T21:38:18.386Z,1.08
2023-04-15T21:40:45.060Z,1.55
2023-04-15T21:43:12.159Z,1.10
2023-04-15T21:45:39.587Z,1.00
2023-04-15T21:48:08.127Z,1.20
2023-04-15T21:50:38.224Z,1.10
2023-04-15T21:53:07.733Z,0.98
2023-04-15T21:55:34.552Z,1.10
2023-04-15T21:58:01.314Z,1.15
2023-04-15T22:00:28.068Z,1.00
2023-04-15T22:02:54.924Z,1.15
2023-04-15T22:05:21.896Z,0.70
2023-04-15T22:07:48.570Z,0.85
2023-04-15T22:10:15.483Z,1.10
2023-04-15T22:12:42.310Z,1.20
2023-04-15T22:15:09.466Z,1.13
2023-04-15T22:17:36.173Z,0.95
2023-04-15T22:20:03.764Z,1.02
2023-04-15T22:22:43.597Z,0.85
2023-04-15T22:25:12.288Z,0.90
2023-04-15T22:27:39.396Z,0.80
2023-04-15T22:30:06.848Z,1.08
2023-04-15T22:32:33.457Z,0.80
2023-04-15T22:35:01.643Z,0.93
2023-04-15T22:37:31.426Z,0.68
2023-04-15T22:39:58.273Z,0.80
2023-04-15T22:42:25.342Z,0.90
2023-04-15T22:44:52.069Z,1.13
2023-04-15T22:47:19.106Z,1.02
2023-04-15T22:49:46.115Z,0.98
2023-04-15T22:52:23.333Z,1.13
2023-04-15T22:54:54.183Z,1.10
2023-04-15T22:57:20.710Z,1.00
2023-04-15T22:59:47.504Z,1.23
2023-04-15T23:02:14.439Z,1.50
2023-04-15T23:04:41.435Z,1.60
2023-04-15T23:07:08.266Z,1.40
2023-04-15T23:09:35.032Z,2.00
2023-04-15T23:12:02.969Z,1.65
2023-04-15T23:14:31.554Z,2.47
2023-04-15T23:16:58.506Z,1.98
2023-04-15T23:19:25.230Z,1.70
2023-04-15T23:21:51.959Z,2.00
2023-04-15T23:24:18.590Z,2.22
2023-04-15T23:26:45.558Z,1.70
2023-04-15T23:29:12.235Z,1.88
2023-04-15T23:31:39.053Z,1.95
2023-04-15T23:34:06.403Z,2.00
2023-04-15T23:36:33.275Z,2.15
2023-04-15T23:39:00.043Z,2.20
2023-04-15T23:41:26.600Z,2.25
2023-04-15T23:43:53.306Z,2.47
2023-04-15T23:46:20.269Z,2.25
2023-04-15T23:48:47.934Z,2.65
2023-04-15T23:51:14.867Z,2.83
2023-04-15T23:53:41.825Z,1.92
2023-04-15T23:56:08.528Z,2.25
2023-04-15T23:58:35.235Z,2.42
